<?xml version="1.0" encoding="UTF-8" standalone="no" ?>
<gpx xmlns="http://www.topografix.com/GPX/1/1" xmlns:xsi="http://www.w3.org/2001/XMLSchema-instance" xsi:schemaLocation="http://www.topografix.com/GPX/1/1 http://www.topografix.com/GPX/1/1/gpx.xsd" version="1.1" creator="VisuGPX - https://www.visugpx.com">
  <metadata>
    <name>PR22-MATEMALE (Les Angles)</name>
    <desc><![CDATA[belle randonnée facile près du Lac de Matemale . [url]http://trekkingzone.fr[/url]]]></desc>
  </metadata>
  <trk>
    <name><![CDATA[13504677-MATEMALE PR22]]></name>
    <trkseg>
      <trkpt lat="42.58709" lon="2.11823">
        <ele>1504</ele>
        <time>2021-08-05T14:56:50Z</time>
      </trkpt>
      <trkpt lat="42.5878" lon="2.11884">
        <ele>1496</ele>
        <time>2021-08-05T14:58:42Z</time>
      </trkpt>
      <trkpt lat="42.58848" lon="2.1193">
        <ele>1492</ele>
        <time>2021-08-05T15:00:23Z</time>
      </trkpt>
      <trkpt lat="42.58931" lon="2.11996">
        <ele>1490</ele>
        <time>2021-08-05T15:02:32Z</time>
      </trkpt>
      <trkpt lat="42.58965" lon="2.12062">
        <ele>1489</ele>
        <time>2021-08-05T15:03:51Z</time>
      </trkpt>
      <trkpt lat="42.59092" lon="2.12073">
        <ele>1487</ele>
        <time>2021-08-05T15:06:41Z</time>
      </trkpt>
      <trkpt lat="42.59164" lon="2.12154">
        <ele>1485</ele>
        <time>2021-08-05T15:08:46Z</time>
      </trkpt>
      <trkpt lat="42.59182" lon="2.12205">
        <ele>1484</ele>
        <time>2021-08-05T15:09:41Z</time>
      </trkpt>
      <trkpt lat="42.59216" lon="2.12251">
        <ele>1481</ele>
        <time>2021-08-05T15:10:45Z</time>
      </trkpt>
      <trkpt lat="42.59291" lon="2.12287">
        <ele>1479</ele>
        <time>2021-08-05T15:12:31Z</time>
      </trkpt>
      <trkpt lat="42.59293" lon="2.12359">
        <ele>1480</ele>
        <time>2021-08-05T15:13:42Z</time>
      </trkpt>
      <trkpt lat="42.59376" lon="2.12394">
        <ele>1480</ele>
        <time>2021-08-05T15:15:38Z</time>
      </trkpt>
      <trkpt lat="42.59427" lon="2.12453">
        <ele>1487</ele>
        <time>2021-08-05T15:17:07Z</time>
      </trkpt>
      <trkpt lat="42.59494" lon="2.12489">
        <ele>1489</ele>
        <time>2021-08-05T15:18:44Z</time>
      </trkpt>
      <trkpt lat="42.59571" lon="2.12499">
        <ele>1484</ele>
        <time>2021-08-05T15:20:27Z</time>
      </trkpt>
      <trkpt lat="42.59669" lon="2.12574">
        <ele>1489</ele>
        <time>2021-08-05T15:22:57Z</time>
      </trkpt>
      <trkpt lat="42.59785" lon="2.12712">
        <ele>1507</ele>
        <time>2021-08-05T15:26:23Z</time>
      </trkpt>
      <trkpt lat="42.59851" lon="2.12763">
        <ele>1513</ele>
        <time>2021-08-05T15:28:04Z</time>
      </trkpt>
      <trkpt lat="42.6002" lon="2.12796">
        <ele>1504</ele>
        <time>2021-08-05T15:31:52Z</time>
      </trkpt>
      <trkpt lat="42.60095" lon="2.12834">
        <ele>1508</ele>
        <time>2021-08-05T15:33:39Z</time>
      </trkpt>
      <trkpt lat="42.6036" lon="2.12972">
        <ele>1493</ele>
        <time>2021-08-05T15:39:57Z</time>
      </trkpt>
      <trkpt lat="42.60341" lon="2.1293">
        <ele>1489</ele>
        <time>2021-08-05T15:40:46Z</time>
      </trkpt>
      <trkpt lat="42.60367" lon="2.12861">
        <ele>1482</ele>
        <time>2021-08-05T15:42:02Z</time>
      </trkpt>
      <trkpt lat="42.60435" lon="2.12836">
        <ele>1477</ele>
        <time>2021-08-05T15:43:36Z</time>
      </trkpt>
      <trkpt lat="42.60469" lon="2.12767">
        <ele>1467</ele>
        <time>2021-08-05T15:44:58Z</time>
      </trkpt>
      <trkpt lat="42.60405" lon="2.12749">
        <ele>1471</ele>
        <time>2021-08-05T15:46:25Z</time>
      </trkpt>
      <trkpt lat="42.60399" lon="2.1271">
        <ele>1467</ele>
        <time>2021-08-05T15:47:04Z</time>
      </trkpt>
      <trkpt lat="42.60412" lon="2.12654">
        <ele>1460</ele>
        <time>2021-08-05T15:48:02Z</time>
      </trkpt>
      <trkpt lat="42.60491" lon="2.12634">
        <ele>1458</ele>
        <time>2021-08-05T15:49:49Z</time>
      </trkpt>
      <trkpt lat="42.60532" lon="2.12534">
        <ele>1457</ele>
        <time>2021-08-05T15:51:41Z</time>
      </trkpt>
      <trkpt lat="42.60532" lon="2.12476">
        <ele>1459</ele>
        <time>2021-08-05T15:52:38Z</time>
      </trkpt>
      <trkpt lat="42.60495" lon="2.12307">
        <ele>1466</ele>
        <time>2021-08-05T15:55:31Z</time>
      </trkpt>
      <trkpt lat="42.6048" lon="2.12213">
        <ele>1471</ele>
        <time>2021-08-05T15:57:06Z</time>
      </trkpt>
      <trkpt lat="42.60504" lon="2.12172">
        <ele>1471</ele>
        <time>2021-08-05T15:57:57Z</time>
      </trkpt>
      <trkpt lat="42.60579" lon="2.12177">
        <ele>1478</ele>
        <time>2021-08-05T15:59:38Z</time>
      </trkpt>
      <trkpt lat="42.60649" lon="2.12177">
        <ele>1485</ele>
        <time>2021-08-05T16:01:11Z</time>
      </trkpt>
      <trkpt lat="42.60731" lon="2.12226">
        <ele>1490</ele>
        <time>2021-08-05T16:03:10Z</time>
      </trkpt>
      <trkpt lat="42.60792" lon="2.12259">
        <ele>1492</ele>
        <time>2021-08-05T16:04:38Z</time>
      </trkpt>
      <trkpt lat="42.6085" lon="2.12246">
        <ele>1497</ele>
        <time>2021-08-05T16:05:57Z</time>
      </trkpt>
      <trkpt lat="42.60876" lon="2.12162">
        <ele>1499</ele>
        <time>2021-08-05T16:07:26Z</time>
      </trkpt>
      <trkpt lat="42.60891" lon="2.1206">
        <ele>1501</ele>
        <time>2021-08-05T16:09:08Z</time>
      </trkpt>
      <trkpt lat="42.60842" lon="2.11963">
        <ele>1504</ele>
        <time>2021-08-05T16:11:04Z</time>
      </trkpt>
      <trkpt lat="42.60752" lon="2.11843">
        <ele>1511</ele>
        <time>2021-08-05T16:13:52Z</time>
      </trkpt>
      <trkpt lat="42.60639" lon="2.11756">
        <ele>1513</ele>
        <time>2021-08-05T16:16:45Z</time>
      </trkpt>
      <trkpt lat="42.60512" lon="2.11659">
        <ele>1520</ele>
        <time>2021-08-05T16:20:00Z</time>
      </trkpt>
      <trkpt lat="42.60425" lon="2.11588">
        <ele>1525</ele>
        <time>2021-08-05T16:22:15Z</time>
      </trkpt>
      <trkpt lat="42.60386" lon="2.116">
        <ele>1526</ele>
        <time>2021-08-05T16:23:09Z</time>
      </trkpt>
      <trkpt lat="42.60217" lon="2.11529">
        <ele>1532</ele>
        <time>2021-08-05T16:27:05Z</time>
      </trkpt>
      <trkpt lat="42.60207" lon="2.115">
        <ele>1532</ele>
        <time>2021-08-05T16:27:36Z</time>
      </trkpt>
      <trkpt lat="42.60158" lon="2.11421">
        <ele>1532</ele>
        <time>2021-08-05T16:29:18Z</time>
      </trkpt>
      <trkpt lat="42.6013" lon="2.1136">
        <ele>1533</ele>
        <time>2021-08-05T16:30:28Z</time>
      </trkpt>
      <trkpt lat="42.60011" lon="2.11272">
        <ele>1541</ele>
        <time>2021-08-05T16:33:29Z</time>
      </trkpt>
      <trkpt lat="42.59947" lon="2.11231">
        <ele>1542</ele>
        <time>2021-08-05T16:35:03Z</time>
      </trkpt>
      <trkpt lat="42.59904" lon="2.11209">
        <ele>1541</ele>
        <time>2021-08-05T16:36:05Z</time>
      </trkpt>
      <trkpt lat="42.59825" lon="2.11161">
        <ele>1543</ele>
        <time>2021-08-05T16:38:00Z</time>
      </trkpt>
      <trkpt lat="42.59805" lon="2.1112">
        <ele>1544</ele>
        <time>2021-08-05T16:38:49Z</time>
      </trkpt>
      <trkpt lat="42.59933" lon="2.1109">
        <ele>1546</ele>
        <time>2021-08-05T16:41:42Z</time>
      </trkpt>
      <trkpt lat="42.59989" lon="2.11041">
        <ele>1547</ele>
        <time>2021-08-05T16:43:11Z</time>
      </trkpt>
      <trkpt lat="42.5997" lon="2.1099">
        <ele>1545</ele>
        <time>2021-08-05T16:44:07Z</time>
      </trkpt>
      <trkpt lat="42.59904" lon="2.10901">
        <ele>1544</ele>
        <time>2021-08-05T16:46:11Z</time>
      </trkpt>
      <trkpt lat="42.59854" lon="2.10765">
        <ele>1552</ele>
        <time>2021-08-05T16:48:40Z</time>
      </trkpt>
      <trkpt lat="42.59786" lon="2.10648">
        <ele>1559</ele>
        <time>2021-08-05T16:51:07Z</time>
      </trkpt>
      <trkpt lat="42.59769" lon="2.10449">
        <ele>1567</ele>
        <time>2021-08-05T16:54:24Z</time>
      </trkpt>
      <trkpt lat="42.59707" lon="2.10324">
        <ele>1566</ele>
        <time>2021-08-05T16:56:52Z</time>
      </trkpt>
      <trkpt lat="42.59675" lon="2.10204">
        <ele>1572</ele>
        <time>2021-08-05T16:58:57Z</time>
      </trkpt>
      <trkpt lat="42.59628" lon="2.10077">
        <ele>1580</ele>
        <time>2021-08-05T17:01:17Z</time>
      </trkpt>
      <trkpt lat="42.59565" lon="2.09929">
        <ele>1592</ele>
        <time>2021-08-05T17:04:05Z</time>
      </trkpt>
      <trkpt lat="42.59519" lon="2.09893">
        <ele>1595</ele>
        <time>2021-08-05T17:05:15Z</time>
      </trkpt>
      <trkpt lat="42.59452" lon="2.09798">
        <ele>1597</ele>
        <time>2021-08-05T17:07:25Z</time>
      </trkpt>
      <trkpt lat="42.59273" lon="2.09793">
        <ele>1590</ele>
        <time>2021-08-05T17:11:24Z</time>
      </trkpt>
      <trkpt lat="42.59158" lon="2.09781">
        <ele>1586</ele>
        <time>2021-08-05T17:13:57Z</time>
      </trkpt>
      <trkpt lat="42.59045" lon="2.09793">
        <ele>1582</ele>
        <time>2021-08-05T17:16:29Z</time>
      </trkpt>
      <trkpt lat="42.58943" lon="2.09791">
        <ele>1580</ele>
        <time>2021-08-05T17:18:45Z</time>
      </trkpt>
      <trkpt lat="42.588" lon="2.09709">
        <ele>1579</ele>
        <time>2021-08-05T17:22:12Z</time>
      </trkpt>
      <trkpt lat="42.58714" lon="2.09694">
        <ele>1578</ele>
        <time>2021-08-05T17:24:08Z</time>
      </trkpt>
      <trkpt lat="42.58622" lon="2.09617">
        <ele>1575</ele>
        <time>2021-08-05T17:26:32Z</time>
      </trkpt>
      <trkpt lat="42.58534" lon="2.09569">
        <ele>1573</ele>
        <time>2021-08-05T17:28:38Z</time>
      </trkpt>
      <trkpt lat="42.58489" lon="2.09608">
        <ele>1575</ele>
        <time>2021-08-05T17:29:50Z</time>
      </trkpt>
      <trkpt lat="42.58422" lon="2.09595">
        <ele>1574</ele>
        <time>2021-08-05T17:31:20Z</time>
      </trkpt>
      <trkpt lat="42.58305" lon="2.09536">
        <ele>1572</ele>
        <time>2021-08-05T17:34:07Z</time>
      </trkpt>
      <trkpt lat="42.58243" lon="2.09503">
        <ele>1571</ele>
        <time>2021-08-05T17:35:35Z</time>
      </trkpt>
      <trkpt lat="42.58185" lon="2.09498">
        <ele>1572</ele>
        <time>2021-08-05T17:36:53Z</time>
      </trkpt>
      <trkpt lat="42.58129" lon="2.09546">
        <ele>1571</ele>
        <time>2021-08-05T17:38:21Z</time>
      </trkpt>
      <trkpt lat="42.58001" lon="2.09618">
        <ele>1567</ele>
        <time>2021-08-05T17:41:26Z</time>
      </trkpt>
      <trkpt lat="42.57883" lon="2.09686">
        <ele>1564</ele>
        <time>2021-08-05T17:44:17Z</time>
      </trkpt>
      <trkpt lat="42.57828" lon="2.09794">
        <ele>1560</ele>
        <time>2021-08-05T17:46:26Z</time>
      </trkpt>
      <trkpt lat="42.57772" lon="2.09972">
        <ele>1554</ele>
        <time>2021-08-05T17:49:37Z</time>
      </trkpt>
      <trkpt lat="42.57697" lon="2.09901">
        <ele>1554</ele>
        <time>2021-08-05T17:51:39Z</time>
      </trkpt>
      <trkpt lat="42.57652" lon="2.09843">
        <ele>1553</ele>
        <time>2021-08-05T17:53:01Z</time>
      </trkpt>
      <trkpt lat="42.57558" lon="2.09725">
        <ele>1553</ele>
        <time>2021-08-05T17:55:52Z</time>
      </trkpt>
      <trkpt lat="42.57513" lon="2.097">
        <ele>1553</ele>
        <time>2021-08-05T17:56:57Z</time>
      </trkpt>
      <trkpt lat="42.57498" lon="2.09771">
        <ele>1553</ele>
        <time>2021-08-05T17:58:10Z</time>
      </trkpt>
      <trkpt lat="42.57547" lon="2.09886">
        <ele>1552</ele>
        <time>2021-08-05T18:00:20Z</time>
      </trkpt>
      <trkpt lat="42.57466" lon="2.09917">
        <ele>1545</ele>
        <time>2021-08-05T18:02:12Z</time>
      </trkpt>
      <trkpt lat="42.57448" lon="2.10014">
        <ele>1543</ele>
        <time>2021-08-05T18:03:51Z</time>
      </trkpt>
      <trkpt lat="42.57448" lon="2.10072">
        <ele>1542</ele>
        <time>2021-08-05T18:04:48Z</time>
      </trkpt>
      <trkpt lat="42.57506" lon="2.10146">
        <ele>1544</ele>
        <time>2021-08-05T18:06:34Z</time>
      </trkpt>
      <trkpt lat="42.57603" lon="2.10136">
        <ele>1550</ele>
        <time>2021-08-05T18:08:44Z</time>
      </trkpt>
      <trkpt lat="42.57667" lon="2.10187">
        <ele>1552</ele>
        <time>2021-08-05T18:10:23Z</time>
      </trkpt>
      <trkpt lat="42.57664" lon="2.10246">
        <ele>1548</ele>
        <time>2021-08-05T18:11:21Z</time>
      </trkpt>
      <trkpt lat="42.57722" lon="2.10322">
        <ele>1545</ele>
        <time>2021-08-05T18:13:08Z</time>
      </trkpt>
      <trkpt lat="42.5781" lon="2.10297">
        <ele>1546</ele>
        <time>2021-08-05T18:15:08Z</time>
      </trkpt>
      <trkpt lat="42.57887" lon="2.10205">
        <ele>1551</ele>
        <time>2021-08-05T18:17:25Z</time>
      </trkpt>
      <trkpt lat="42.57896" lon="2.10324">
        <ele>1545</ele>
        <time>2021-08-05T18:19:23Z</time>
      </trkpt>
      <trkpt lat="42.57883" lon="2.10398">
        <ele>1544</ele>
        <time>2021-08-05T18:20:38Z</time>
      </trkpt>
      <trkpt lat="42.57911" lon="2.10462">
        <ele>1545</ele>
        <time>2021-08-05T18:21:51Z</time>
      </trkpt>
      <trkpt lat="42.58003" lon="2.10552">
        <ele>1544</ele>
        <time>2021-08-05T18:24:22Z</time>
      </trkpt>
      <trkpt lat="42.58093" lon="2.10465">
        <ele>1551</ele>
        <time>2021-08-05T18:26:50Z</time>
      </trkpt>
      <trkpt lat="42.5802" lon="2.10682">
        <ele>1540</ele>
        <time>2021-08-05T18:30:44Z</time>
      </trkpt>
      <trkpt lat="42.57488" lon="2.1126">
        <ele>1542</ele>
        <time>2021-08-05T18:45:53Z</time>
      </trkpt>
      <trkpt lat="42.57585" lon="2.11277">
        <ele>1531</ele>
        <time>2021-08-05T18:48:04Z</time>
      </trkpt>
      <trkpt lat="42.57669" lon="2.11328">
        <ele>1518</ele>
        <time>2021-08-05T18:50:06Z</time>
      </trkpt>
      <trkpt lat="42.57772" lon="2.11359">
        <ele>1514</ele>
        <time>2021-08-05T18:52:27Z</time>
      </trkpt>
      <trkpt lat="42.57945" lon="2.11366">
        <ele>1510</ele>
        <time>2021-08-05T18:56:18Z</time>
      </trkpt>
      <trkpt lat="42.5803" lon="2.1141">
        <ele>1510</ele>
        <time>2021-08-05T18:58:20Z</time>
      </trkpt>
      <trkpt lat="42.58177" lon="2.11562">
        <ele>1506</ele>
        <time>2021-08-05T19:02:26Z</time>
      </trkpt>
      <trkpt lat="42.58316" lon="2.11697">
        <ele>1506</ele>
        <time>2021-08-05T19:06:14Z</time>
      </trkpt>
      <trkpt lat="42.58421" lon="2.11812">
        <ele>1504</ele>
        <time>2021-08-05T19:09:14Z</time>
      </trkpt>
      <trkpt lat="42.58535" lon="2.11898">
        <ele>1500</ele>
        <time>2021-08-05T19:12:08Z</time>
      </trkpt>
      <trkpt lat="42.58607" lon="2.11862">
        <ele>1501</ele>
        <time>2021-08-05T19:13:51Z</time>
      </trkpt>
      <trkpt lat="42.58665" lon="2.11896">
        <ele>1498</ele>
        <time>2021-08-05T19:15:15Z</time>
      </trkpt>
      <trkpt lat="42.58744" lon="2.11819">
        <ele>1503</ele>
        <time>2021-08-05T19:17:25Z</time>
      </trkpt>
    </trkseg>
  </trk>
</gpx>